createdAt,value
2017-07-06T00:01:29.471Z,81.30
2017-07-06T00:03:57.976Z,80.90
2017-07-06T00:06:26.426Z,80.80
2017-07-06T00:08:54.890Z,80.80
2017-07-06T00:11:23.438Z,80.80
2017-07-06T00:13:51.890Z,81.10
2017-07-06T00:16:20.333Z,80.20
2017-07-06T00:18:48.784Z,80.70
2017-07-06T00:21:18.007Z,81.40
2017-07-06T00:23:46.452Z,81.60
2017-07-06T00:26:14.886Z,81.20
2017-07-06T00:28:43.324Z,80.90
2017-07-06T00:31:11.777Z,81.50
2017-07-06T00:33:40.313Z,80.90
2017-07-06T00:36:08.751Z,81.50
2017-07-06T00:38:37.224Z,81.90
2017-07-06T00:41:05.733Z,82.00
2017-07-06T00:43:34.171Z,82.60
2017-07-06T00:46:02.247Z,83.30
2017-07-06T00:48:30.757Z,84.00
2017-07-06T00:50:59.201Z,84.20
2017-07-06T00:53:27.670Z,84.90
2017-07-06T00:55:56.119Z,85.00
2017-07-06T00:58:24.560Z,84.60
2017-07-06T01:00:52.983Z,84.80
2017-07-06T01:03:21.442Z,85.30
2017-07-06T01:05:49.881Z,85.40
2017-07-06T01:08:18.307Z,85.90
2017-07-06T01:10:46.780Z,86.40
2017-07-06T01:13:14.884Z,86.70
2017-07-06T01:15:43.338Z,86.40
2017-07-06T01:18:11.901Z,86.70
2017-07-06T01:20:40.371Z,86.30
2017-07-06T01:23:08.819Z,86.60
2017-07-06T01:25:38.041Z,87.10
2017-07-06T01:28:06.471Z,86.40
2017-07-06T01:30:34.928Z,86.50
2017-07-06T01:33:03.462Z,86.10
2017-07-06T01:35:31.923Z,86.30
2017-07-06T01:38:00.384Z,86.20
2017-07-06T01:40:28.824Z,86.40
2017-07-06T01:42:57.244Z,85.50
2017-07-06T01:45:25.319Z,85.10
2017-07-06T01:47:53.784Z,84.80
2017-07-06T01:50:22.215Z,84.60
2017-07-06T01:52:50.703Z,84.40
2017-07-06T01:55:18.498Z,84.90
2017-07-06T01:57:46.276Z,85.00
2017-07-06T02:00:14.719Z,84.20
2017-07-06T02:02:43.172Z,84.10
2017-07-06T02:05:11.851Z,84.30
2017-07-06T02:07:40.347Z,84.40
2017-07-06T02:10:08.812Z,84.60
2017-07-06T02:12:37.289Z,85.30
2017-07-06T02:15:05.903Z,85.20
2017-07-06T02:17:34.398Z,84.90
2017-07-06T02:20:02.847Z,84.80
2017-07-06T02:22:31.335Z,84.20
2017-07-06T02:24:59.930Z,83.70
2017-07-06T02:27:28.369Z,83.70
2017-07-06T02:29:56.801Z,84.20
2017-07-06T02:32:25.267Z,83.20
2017-07-06T02:34:53.686Z,82.80
2017-07-06T02:37:22.880Z,82.80
2017-07-06T02:39:51.456Z,82.80
2017-07-06T02:42:19.915Z,82.50
2017-07-06T02:44:48.356Z,82.70
2017-07-06T02:47:16.804Z,83.30
2017-07-06T02:49:46.036Z,83.30
2017-07-06T02:52:14.522Z,82.90
2017-07-06T02:54:43.009Z,83.60
2017-07-06T02:57:11.478Z,83.40
2017-07-06T02:59:39.959Z,83.20
2017-07-06T03:02:08.424Z,82.60
2017-07-06T03:04:36.875Z,82.80
2017-07-06T03:07:05.307Z,83.20
2017-07-06T03:09:33.742Z,82.70
2017-07-06T03:12:01.838Z,82.90
2017-07-06T03:14:29.970Z,82.80
2017-07-06T03:16:58.536Z,82.70
2017-07-06T03:19:27.020Z,83.20
2017-07-06T03:21:55.524Z,83.20
2017-07-06T03:24:24.247Z,83.10
2017-07-06T03:26:52.687Z,83.00
2017-07-06T03:29:21.176Z,83.20
2017-07-06T03:31:49.679Z,83.40
2017-07-06T03:34:18.115Z,83.30
2017-07-06T03:36:46.194Z,83.10
2017-07-06T03:39:14.648Z,83.00
2017-07-06T03:41:43.094Z,82.90
2017-07-06T03:44:11.519Z,83.40
2017-07-06T03:46:39.948Z,83.20
2017-07-06T03:49:08.387Z,84.00
2017-07-06T03:51:36.830Z,83.80
2017-07-06T03:54:05.279Z,83.30
2017-07-06T03:56:33.702Z,83.30
2017-07-06T03:59:02.128Z,83.80
2017-07-06T04:01:30.597Z,82.60
2017-07-06T04:03:59.015Z,82.80
2017-07-06T04:06:27.439Z,82.60
2017-07-06T04:08:55.936Z,82.40
2017-07-06T04:11:24.395Z,81.20
2017-07-06T04:13:52.847Z,81.60
2017-07-06T04:16:21.489Z,82.00
2017-07-06T04:18:49.975Z,81.60
2017-07-06T04:21:18.076Z,81.10
2017-07-06T04:23:46.550Z,81.00
2017-07-06T04:26:14.989Z,80.70
2017-07-06T04:28:43.443Z,80.60
2017-07-06T04:31:11.921Z,81.70
2017-07-06T04:33:40.353Z,82.30
2017-07-06T04:36:08.811Z,81.30
2017-07-06T04:38:37.271Z,82.40
2017-07-06T04:41:05.699Z,82.20
2017-07-06T04:43:34.124Z,82.20
2017-07-06T04:46:02.644Z,81.90
2017-07-06T04:48:31.095Z,81.30
2017-07-06T04:50:59.525Z,80.20
2017-07-06T04:53:28.045Z,80.10
2017-07-06T04:55:56.780Z,79.00
2017-07-06T04:58:25.235Z,75.90
2017-07-06T05:00:53.725Z,72.80
2017-07-06T05:03:22.192Z,71.60
2017-07-06T05:05:50.621Z,70.30
2017-07-06T05:08:19.177Z,69.50
2017-07-06T05:10:47.625Z,68.20
2017-07-06T05:13:16.145Z,68.80
2017-07-06T05:15:44.584Z,69.10
2017-07-06T05:18:13.056Z,68.50
2017-07-06T05:20:41.535Z,69.20
2017-07-06T05:23:10.070Z,69.20
2017-07-06T05:25:38.523Z,68.30
2017-07-06T05:28:07.004Z,68.30
2017-07-06T05:30:35.555Z,68.90
2017-07-06T05:33:03.991Z,68.60
2017-07-06T05:35:32.456Z,68.60
2017-07-06T05:38:00.955Z,68.30
2017-07-06T05:40:28.696Z,67.70
2017-07-06T05:42:57.121Z,67.40
2017-07-06T05:45:25.611Z,67.70
2017-07-06T05:47:54.078Z,66.40
2017-07-06T05:50:22.713Z,66.30
2017-07-06T05:52:51.166Z,64.20
2017-07-06T05:55:19.680Z,64.50
2017-07-06T05:57:47.754Z,63.50
2017-07-06T06:00:16.297Z,64.10
2017-07-06T06:02:44.733Z,63.60
2017-07-06T06:05:13.191Z,62.60
2017-07-06T06:07:41.721Z,60.90
2017-07-06T06:10:10.150Z,59.70
2017-07-06T06:12:38.612Z,61.20
2017-07-06T06:15:07.103Z,58.80
2017-07-06T06:17:35.548Z,58.70
2017-07-06T06:20:03.981Z,59.30
2017-07-06T06:22:32.438Z,58.20
2017-07-06T06:25:00.891Z,57.60
2017-07-06T06:27:29.331Z,55.80
2017-07-06T06:29:57.784Z,55.70
2017-07-06T06:32:27.023Z,54.80
2017-07-06T06:34:55.552Z,54.80
2017-07-06T06:37:24.046Z,53.60
2017-07-06T06:39:52.510Z,48.80
2017-07-06T06:42:20.984Z,51.10
2017-07-06T06:44:49.457Z,49.70
2017-07-06T06:47:17.917Z,47.10
2017-07-06T06:49:46.398Z,51.20
2017-07-06T06:52:14.915Z,48.70
2017-07-06T06:54:43.346Z,49.80
2017-07-06T06:57:11.779Z,45.90
2017-07-06T06:59:40.283Z,47.30
2017-07-06T07:02:08.820Z,47.70
2017-07-06T07:04:37.285Z,42.00
2017-07-06T07:07:10.957Z,42.30
2017-07-06T07:09:39.487Z,43.00
2017-07-06T07:12:07.955Z,43.50
2017-07-06T07:14:36.435Z,40.70
2017-07-06T07:17:04.545Z,37.00
2017-07-06T07:19:32.982Z,35.90
2017-07-06T07:22:01.459Z,39.70
2017-07-06T07:24:30.690Z,40.40
2017-07-06T07:26:58.967Z,40.50
2017-07-06T07:29:27.695Z,40.80
2017-07-06T07:31:56.146Z,36.10
2017-07-06T07:34:24.579Z,34.70
2017-07-06T07:36:53.025Z,36.40
2017-07-06T07:39:21.500Z,35.60
2017-07-06T07:41:49.926Z,39.00
2017-07-06T07:44:18.367Z,37.00
2017-07-06T07:46:46.828Z,39.60
2017-07-06T07:49:15.248Z,39.00
2017-07-06T07:51:43.743Z,38.80
2017-07-06T07:54:12.197Z,41.00
2017-07-06T07:56:40.676Z,41.70
2017-07-06T07:59:09.222Z,40.10
2017-07-06T08:01:37.673Z,38.40
2017-07-06T08:04:06.130Z,39.10
2017-07-06T08:06:34.726Z,39.70
2017-07-06T08:09:03.203Z,37.70
2017-07-06T08:11:31.639Z,38.40
2017-07-06T08:14:00.739Z,39.50
2017-07-06T08:16:29.415Z,38.20
2017-07-06T08:18:57.883Z,40.30
2017-07-06T08:21:27.125Z,42.10
2017-07-06T08:23:55.606Z,42.10
2017-07-06T08:26:24.082Z,42.70
2017-07-06T08:28:55.444Z,37.40
2017-07-06T08:31:23.911Z,38.30
2017-07-06T08:33:52.352Z,39.20
2017-07-06T08:36:20.835Z,39.60
2017-07-06T08:38:49.324Z,40.40
2017-07-06T08:41:17.774Z,39.30
2017-07-06T08:43:46.332Z,39.10
2017-07-06T08:46:15.068Z,37.50
2017-07-06T08:48:43.544Z,35.50
2017-07-06T08:51:12.036Z,35.20
2017-07-06T08:53:40.535Z,36.50
2017-07-06T08:56:08.976Z,40.20
2017-07-06T08:58:37.473Z,41.60
2017-07-06T09:01:05.938Z,36.60
2017-07-06T09:03:34.404Z,33.40
2017-07-06T09:06:02.879Z,38.50
2017-07-06T09:08:31.354Z,32.50
2017-07-06T09:10:59.815Z,33.40
2017-07-06T09:13:28.355Z,34.70
2017-07-06T09:15:56.654Z,38.30
2017-07-06T09:18:25.149Z,36.80
2017-07-06T09:20:53.664Z,36.10
2017-07-06T09:23:22.374Z,36.70
2017-07-06T09:25:50.829Z,39.20
2017-07-06T09:28:19.364Z,35.80
2017-07-06T09:30:48.534Z,36.50
2017-07-06T09:33:16.963Z,32.70
2017-07-06T09:35:45.543Z,34.80
2017-07-06T09:38:14.267Z,36.70
2017-07-06T09:40:42.737Z,36.60
2017-07-06T09:43:12.100Z,38.00
2017-07-06T09:45:40.541Z,38.70
2017-07-06T09:48:09.027Z,32.40
2017-07-06T09:50:37.514Z,33.60
2017-07-06T09:53:06.026Z,34.80
2017-07-06T09:55:52.038Z,37.00
2017-07-06T09:58:20.359Z,32.50
2017-07-06T10:00:48.895Z,33.00
2017-07-06T10:03:17.425Z,33.90
2017-07-06T10:05:45.863Z,37.00
2017-07-06T10:08:14.388Z,37.60
2017-07-06T10:10:42.909Z,37.30
2017-07-06T10:13:11.396Z,32.40
2017-07-06T10:15:39.900Z,30.60
2017-07-06T10:18:08.096Z,31.40
2017-07-06T10:20:36.576Z,35.00
2017-07-06T10:23:05.037Z,36.80
2017-07-06T10:25:33.548Z,36.90
2017-07-06T10:28:02.068Z,36.50
2017-07-06T10:30:30.602Z,40.90
2017-07-06T10:32:59.120Z,36.00
2017-07-06T10:35:27.605Z,32.40
2017-07-06T10:37:56.093Z,34.00
2017-07-06T10:40:24.569Z,36.30
2017-07-06T10:42:53.100Z,32.40
2017-07-06T10:45:21.565Z,31.90
2017-07-06T10:47:50.273Z,33.60
2017-07-06T10:50:18.126Z,35.10
2017-07-06T10:52:46.592Z,37.70
2017-07-06T10:55:15.085Z,36.60
2017-07-06T10:57:43.566Z,36.10
2017-07-06T11:00:12.091Z,36.00
2017-07-06T11:02:40.949Z,36.60
2017-07-06T11:05:09.407Z,39.40
2017-07-06T11:07:38.038Z,38.90
2017-07-06T11:10:06.519Z,37.40
2017-07-06T11:12:34.978Z,35.20
2017-07-06T11:15:03.480Z,33.10
2017-07-06T11:17:32.084Z,34.40
2017-07-06T11:20:00.542Z,37.80
2017-07-06T11:22:29.035Z,36.70
2017-07-06T11:24:57.514Z,33.90
2017-07-06T11:27:26.025Z,39.10
2017-07-06T11:29:54.499Z,38.70
2017-07-06T11:32:23.793Z,32.70
2017-07-06T11:34:52.297Z,32.80
2017-07-06T11:37:20.768Z,35.60
2017-07-06T11:39:49.342Z,36.70
2017-07-06T11:42:17.812Z,34.20
2017-07-06T11:44:46.272Z,38.00
2017-07-06T11:47:14.791Z,31.00
2017-07-06T11:49:43.283Z,37.70
2017-07-06T11:52:11.791Z,37.80
2017-07-06T11:54:40.325Z,38.40
2017-07-06T11:57:08.795Z,36.50
2017-07-06T11:59:37.249Z,35.00
2017-07-06T12:02:05.761Z,31.70
2017-07-06T12:04:34.251Z,37.80
2017-07-06T12:07:03.761Z,34.10
2017-07-06T12:09:32.296Z,31.90
2017-07-06T12:12:00.818Z,39.30
2017-07-06T12:14:29.314Z,30.30
2017-07-06T12:16:57.833Z,32.00
2017-07-06T12:19:26.345Z,32.40
2017-07-06T12:21:54.857Z,34.70
2017-07-06T12:24:23.332Z,34.10
2017-07-06T12:26:51.891Z,40.70
2017-07-06T12:29:20.387Z,36.10
2017-07-06T12:31:48.902Z,35.50
2017-07-06T12:34:17.366Z,35.10
2017-07-06T12:36:45.813Z,33.10
2017-07-06T12:39:14.306Z,36.80
2017-07-06T12:41:42.836Z,47.60
2017-07-06T12:44:12.316Z,38.50
2017-07-06T12:46:40.826Z,36.90
2017-07-06T12:49:09.328Z,37.60
2017-07-06T12:51:37.802Z,37.00
2017-07-06T12:54:06.320Z,35.20
2017-07-06T12:56:34.765Z,34.80
2017-07-06T12:59:03.252Z,34.70
2017-07-06T13:01:31.764Z,38.70
2017-07-06T13:03:59.900Z,37.70
2017-07-06T13:06:28.360Z,38.80
2017-07-06T13:08:56.925Z,39.20
2017-07-06T13:11:25.417Z,41.30
2017-07-06T13:13:54.195Z,45.20
2017-07-06T13:16:22.771Z,37.90
2017-07-06T13:18:51.275Z,41.20
2017-07-06T13:21:19.116Z,45.00
2017-07-06T13:23:47.639Z,42.40
2017-07-06T13:26:16.135Z,40.20
2017-07-06T13:28:44.599Z,43.20
2017-07-06T13:31:13.127Z,44.50
2017-07-06T13:33:41.595Z,47.10
2017-07-06T13:36:10.143Z,51.80
2017-07-06T13:38:38.676Z,52.20
2017-07-06T13:41:07.141Z,51.50
2017-07-06T13:43:35.612Z,55.50
2017-07-06T13:46:04.348Z,54.40
2017-07-06T13:48:32.443Z,55.90
2017-07-06T13:51:00.722Z,61.20
2017-07-06T13:53:29.306Z,66.40
2017-07-06T13:55:57.753Z,73.70
2017-07-06T13:58:26.166Z,80.10
2017-07-06T14:00:54.615Z,80.00
2017-07-06T14:03:23.798Z,81.30
2017-07-06T14:05:52.264Z,81.40
2017-07-06T14:08:20.731Z,82.00
2017-07-06T14:10:48.463Z,83.80
2017-07-06T14:13:16.897Z,81.30
2017-07-06T14:15:45.332Z,81.90
2017-07-06T14:18:13.856Z,82.80
2017-07-06T14:20:42.320Z,83.50
2017-07-06T14:23:10.802Z,81.70
2017-07-06T14:25:39.224Z,78.60
2017-07-06T14:28:07.651Z,76.90
2017-07-06T14:30:36.105Z,76.60
2017-07-06T14:33:05.280Z,68.40
2017-07-06T14:35:33.688Z,68.40
2017-07-06T14:38:02.139Z,69.60
2017-07-06T14:40:30.551Z,72.80
2017-07-06T14:42:58.969Z,75.20
2017-07-06T14:45:27.407Z,77.10
2017-07-06T14:47:55.846Z,78.70
2017-07-06T14:50:24.253Z,78.00
2017-07-06T14:52:52.690Z,79.80
2017-07-06T14:55:21.110Z,79.20
2017-07-06T14:57:49.523Z,78.10
2017-07-06T15:00:18.077Z,78.80
2017-07-06T15:02:46.528Z,79.80
2017-07-06T15:05:14.944Z,70.80
2017-07-06T15:07:43.391Z,71.80
2017-07-06T15:10:11.856Z,75.00
2017-07-06T15:12:40.313Z,76.90
2017-07-06T15:15:08.803Z,73.50
2017-07-06T15:17:37.236Z,76.10
2017-07-06T15:20:05.654Z,71.90
2017-07-06T15:22:34.144Z,77.10
2017-07-06T15:25:02.563Z,72.30
2017-07-06T15:27:30.978Z,70.70
2017-07-06T15:29:59.414Z,71.50
2017-07-06T15:32:27.873Z,70.60
2017-07-06T15:34:56.301Z,65.60
2017-07-06T15:37:24.775Z,66.10
2017-07-06T15:39:52.846Z,67.20
2017-07-06T15:42:20.971Z,67.10
2017-07-06T15:44:49.480Z,71.40
2017-07-06T15:47:17.943Z,71.40
2017-07-06T15:49:46.410Z,69.70
2017-07-06T15:52:14.976Z,73.60
2017-07-06T15:54:43.431Z,75.30
2017-07-06T15:57:11.880Z,74.70
2017-07-06T15:59:40.333Z,77.10
2017-07-06T16:02:08.751Z,76.80
2017-07-06T16:04:37.191Z,79.00
2017-07-06T16:07:05.647Z,79.10
2017-07-06T16:09:34.092Z,79.00
2017-07-06T16:12:02.530Z,79.00
2017-07-06T16:14:30.976Z,77.10
2017-07-06T16:16:59.427Z,77.90
2017-07-06T16:19:27.851Z,79.40
2017-07-06T16:21:56.342Z,80.90
2017-07-06T16:24:24.756Z,81.30
2017-07-06T16:26:53.167Z,81.50
2017-07-06T16:29:21.629Z,81.20
2017-07-06T16:31:50.043Z,82.70
2017-07-06T16:34:18.464Z,81.80
2017-07-06T16:36:46.925Z,81.30
2017-07-06T16:39:15.382Z,79.50
2017-07-06T16:41:43.843Z,81.20
2017-07-06T16:44:12.302Z,71.50
2017-07-06T16:46:42.422Z,80.50
2017-07-06T16:49:10.874Z,80.60
2017-07-06T16:51:39.325Z,78.60
2017-07-06T16:54:08.542Z,79.70
2017-07-06T16:56:37.046Z,82.60
2017-07-06T16:59:05.479Z,79.30
2017-07-06T17:01:33.889Z,80.00
2017-07-06T17:04:02.334Z,78.30
2017-07-06T17:06:30.817Z,79.20
2017-07-06T17:08:59.337Z,78.60
2017-07-06T17:11:27.758Z,78.60
2017-07-06T17:13:56.219Z,78.40
2017-07-06T17:16:24.685Z,80.50
2017-07-06T17:18:53.102Z,79.80
2017-07-06T17:21:21.570Z,80.80
2017-07-06T17:23:49.986Z,82.50
2017-07-06T17:26:18.406Z,82.50
2017-07-06T17:28:46.829Z,82.90
2017-07-06T17:31:15.235Z,82.90
2017-07-06T17:33:43.639Z,82.60
2017-07-06T17:36:12.087Z,83.10
2017-07-06T17:38:40.492Z,84.40
2017-07-06T17:41:08.894Z,84.60
2017-07-06T17:43:37.366Z,84.30
2017-07-06T17:46:06.025Z,84.20
2017-07-06T17:48:34.480Z,83.40
2017-07-06T17:51:03.007Z,85.70
2017-07-06T17:53:31.496Z,85.90
2017-07-06T17:55:59.944Z,85.80
2017-07-06T17:58:29.196Z,86.30
2017-07-06T18:00:59.003Z,86.40
2017-07-06T18:03:27.471Z,86.80
2017-07-06T18:05:56.146Z,87.60
2017-07-06T18:08:24.592Z,87.70
2017-07-06T18:10:53.039Z,88.00
2017-07-06T18:13:21.640Z,88.80
2017-07-06T18:15:50.081Z,89.30
2017-07-06T18:18:18.499Z,88.80
2017-07-06T18:20:47.205Z,89.50
2017-07-06T18:23:15.676Z,89.70
2017-07-06T18:25:44.861Z,88.80
2017-07-06T18:28:13.335Z,87.70
2017-07-06T18:30:41.810Z,86.00
2017-07-06T18:33:10.271Z,86.60
2017-07-06T18:35:39.285Z,87.30
2017-07-06T18:38:09.691Z,89.00
2017-07-06T18:40:50.817Z,90.40
2017-07-06T18:43:19.271Z,90.30
2017-07-06T18:45:47.740Z,90.20
2017-07-06T18:48:16.356Z,90.00
2017-07-06T18:50:44.861Z,88.70
2017-07-06T18:53:14.410Z,88.80
2017-07-06T18:55:43.195Z,90.20
2017-07-06T18:58:11.919Z,89.80
2017-07-06T19:00:40.444Z,90.30
2017-07-06T19:03:08.985Z,89.30
2017-07-06T19:05:37.957Z,89.30
2017-07-06T19:08:06.463Z,90.70
2017-07-06T19:10:35.075Z,90.40
2017-07-06T19:13:03.568Z,90.60
2017-07-06T19:15:32.764Z,90.20
2017-07-06T19:18:01.381Z,90.40
2017-07-06T19:20:29.848Z,90.70
2017-07-06T19:23:00.093Z,90.70
2017-07-06T19:25:31.734Z,91.00
2017-07-06T19:28:01.613Z,91.30
2017-07-06T19:30:37.919Z,91.10
2017-07-06T19:33:06.431Z,91.80
2017-07-06T19:35:40.043Z,91.40
2017-07-06T19:38:09.643Z,91.00
2017-07-06T19:43:31.543Z,90.80
2017-07-06T19:46:00.511Z,90.80
2017-07-06T19:48:29.049Z,90.80
2017-07-06T19:50:59.547Z,90.90
2017-07-06T19:53:28.016Z,91.40
2017-07-06T19:55:56.517Z,91.10
2017-07-06T19:58:25.077Z,91.40
2017-07-06T20:00:54.674Z,91.30
2017-07-06T20:03:23.130Z,91.30
2017-07-06T20:05:51.630Z,91.30
2017-07-06T20:08:20.173Z,91.20
2017-07-06T20:10:48.769Z,91.00
2017-07-06T20:13:17.381Z,90.90
2017-07-06T20:15:45.914Z,90.60
2017-07-06T20:18:14.431Z,90.40
2017-07-06T20:20:42.916Z,90.60
2017-07-06T20:23:11.353Z,90.40
2017-07-06T20:25:39.932Z,90.70
2017-07-06T20:28:08.753Z,90.60
2017-07-06T20:30:38.500Z,90.80
2017-07-06T20:33:07.872Z,90.50
2017-07-06T20:35:38.822Z,90.90
2017-07-06T20:38:07.376Z,90.60
2017-07-06T20:40:36.140Z,90.60
2017-07-06T20:43:04.882Z,90.70
2017-07-06T20:45:33.394Z,90.80
2017-07-06T20:48:01.903Z,91.00
2017-07-06T20:50:30.636Z,91.00
2017-07-06T20:52:59.184Z,91.20
2017-07-06T20:55:27.750Z,91.00
2017-07-06T20:57:57.090Z,90.80
2017-07-06T21:00:25.775Z,90.90
2017-07-06T21:02:54.278Z,90.60
2017-07-06T21:05:22.911Z,91.00
2017-07-06T21:07:51.391Z,90.90
2017-07-06T21:10:19.895Z,91.20
2017-07-06T21:12:48.461Z,91.10
2017-07-06T21:15:17.231Z,91.00
2017-07-06T21:17:45.818Z,90.80
2017-07-06T21:20:14.341Z,91.30
2017-07-06T21:22:42.860Z,91.10
2017-07-06T21:25:11.383Z,91.40
2017-07-06T21:27:39.882Z,91.10
2017-07-06T21:30:08.368Z,92.30
2017-07-06T21:32:36.940Z,91.80
2017-07-06T21:35:05.500Z,91.60
2017-07-06T21:37:33.968Z,91.70
2017-07-06T21:40:02.498Z,91.50
2017-07-06T21:42:31.031Z,91.90
2017-07-06T21:44:59.994Z,92.20
2017-07-06T21:47:28.507Z,92.10
2017-07-06T21:49:58.120Z,92.20
2017-07-06T21:52:26.608Z,92.00
2017-07-06T21:54:55.733Z,92.90
2017-07-06T21:57:24.327Z,92.00
2017-07-06T21:59:52.835Z,92.10
2017-07-06T22:02:21.291Z,92.10
2017-07-06T22:04:49.844Z,91.80
2017-07-06T22:07:18.313Z,91.60
2017-07-06T22:09:46.854Z,91.60
2017-07-06T22:12:15.369Z,91.50
2017-07-06T22:14:43.872Z,91.90
2017-07-06T22:17:12.351Z,92.80
2017-07-06T22:19:40.944Z,92.60
2017-07-06T22:22:09.398Z,92.00
2017-07-06T22:24:37.887Z,91.80
2017-07-06T22:27:06.339Z,91.80
2017-07-06T22:29:34.803Z,91.50
2017-07-06T22:32:03.270Z,92.30
2017-07-06T22:34:31.787Z,92.60
2017-07-06T22:37:00.256Z,92.20
2017-07-06T22:39:28.739Z,91.90
2017-07-06T22:41:57.252Z,91.70
2017-07-06T22:44:25.747Z,92.30
2017-07-06T22:46:54.239Z,91.90
2017-07-06T22:49:22.703Z,92.10
2017-07-06T22:51:51.207Z,92.00
2017-07-06T22:54:19.694Z,92.40
2017-07-06T22:56:48.222Z,93.20
2017-07-06T22:59:16.696Z,92.40
2017-07-06T23:01:45.160Z,92.40
2017-07-06T23:04:13.766Z,92.90
2017-07-06T23:06:42.299Z,93.00
2017-07-06T23:09:10.778Z,92.80
2017-07-06T23:11:39.291Z,92.70
2017-07-06T23:14:07.811Z,93.00
2017-07-06T23:16:36.288Z,92.60
2017-07-06T23:19:04.768Z,92.40
2017-07-06T23:21:33.240Z,92.20
2017-07-06T23:24:01.783Z,92.00
2017-07-06T23:26:30.241Z,92.20
2017-07-06T23:28:58.730Z,92.60
2017-07-06T23:31:27.171Z,92.80
2017-07-06T23:33:55.655Z,92.70
2017-07-06T23:36:24.147Z,92.50
2017-07-06T23:38:52.604Z,92.60
2017-07-06T23:41:21.081Z,92.00
2017-07-06T23:43:49.542Z,92.40
2017-07-06T23:46:17.974Z,92.70
2017-07-06T23:48:46.439Z,93.00
2017-07-06T23:51:14.897Z,92.70
2017-07-06T23:53:43.377Z,92.40
2017-07-06T23:56:11.884Z,92.90
2017-07-06T23:58:40.354Z,92.70
